Moosonee, Canada
Current Conditions -  °F | °C
As of 3:55 AM on Sunday 26 Oct 2014 (Local Time) from CYMO Reporting Station
Light Rain Light Rain  
Wind Chill: 38°   Ceiling: 500
Heat Index: 45°   Visibility: 2mi
Dew Point: 43°   Wind: 13mph
Humidity: 93%   Direction: 320°NW
Pressure: 29.38"   Gusts: 18mph
Location:  51.27°N, 80.64°W
Report Text: CYMO 260755Z AUTO 32011G16KT 2SM -RA BR OVC005 07/06 A2938 RMK SLP949
Loading
Personal Weather Stations






























Interactive Weather Map New forecast layout! Learn more

10-Day Weather Forecast

Advertisements
Track Severe Weather on mobile